createdAt,value
2019-03-18T00:01:17.438Z,16.30
2019-03-18T00:03:45.936Z,14.58
2019-03-18T00:06:14.425Z,10.53
2019-03-18T00:08:42.990Z,8.10
2019-03-18T00:11:11.472Z,8.80
2019-03-18T00:13:39.963Z,9.75
2019-03-18T00:16:08.442Z,8.85
2019-03-18T00:18:37.012Z,8.28
2019-03-18T00:21:05.485Z,8.60
2019-03-18T00:23:33.980Z,14.30
2019-03-18T00:26:02.468Z,12.37
2019-03-18T00:28:31.365Z,17.42
2019-03-18T00:30:59.889Z,16.48
2019-03-18T00:33:28.399Z,12.75
2019-03-18T00:35:56.887Z,12.05
2019-03-18T00:38:25.380Z,7.75
2019-03-18T00:40:53.865Z,11.65
2019-03-18T00:43:22.658Z,12.10
2019-03-18T00:45:51.157Z,13.68
2019-03-18T00:48:19.638Z,12.05
2019-03-18T00:50:48.123Z,12.60
2019-03-18T00:53:16.628Z,16.65
2019-03-18T00:55:45.109Z,17.65
2019-03-18T00:58:13.609Z,14.28
2019-03-18T01:00:42.096Z,11.20
2019-03-18T01:03:10.591Z,11.03
2019-03-18T01:05:39.078Z,12.95
2019-03-18T01:08:07.573Z,12.43
2019-03-18T01:10:36.062Z,11.57
2019-03-18T01:13:04.553Z,14.30
2019-03-18T01:15:33.029Z,12.85
2019-03-18T01:18:01.526Z,12.33
2019-03-18T01:20:30.015Z,13.55
2019-03-18T01:22:58.514Z,17.12
2019-03-18T01:25:27.000Z,20.65
2019-03-18T01:27:55.485Z,28.62
2019-03-18T01:30:23.986Z,22.13
2019-03-18T01:32:52.483Z,15.63
2019-03-18T01:35:20.973Z,13.15
2019-03-18T01:37:49.454Z,9.43
2019-03-18T01:40:17.953Z,9.08
2019-03-18T01:42:46.438Z,12.15
2019-03-18T01:45:14.932Z,13.70
2019-03-18T01:47:43.420Z,12.95
2019-03-18T01:50:13.412Z,14.87
2019-03-18T01:52:41.905Z,13.50
2019-03-18T01:55:10.400Z,13.83
2019-03-18T01:57:38.884Z,12.33
2019-03-18T02:00:09.789Z,12.03
2019-03-18T02:02:39.277Z,9.68
2019-03-18T02:05:09.369Z,7.95
2019-03-18T02:07:37.854Z,9.40
2019-03-18T02:10:11.195Z,12.55
2019-03-18T02:12:39.687Z,19.82
2019-03-18T02:15:10.293Z,22.37
2019-03-18T02:17:38.779Z,22.90
2019-03-18T02:20:14.536Z,20.85
2019-03-18T02:22:43.022Z,18.32
2019-03-18T02:25:11.700Z,23.12
2019-03-18T02:27:40.299Z,29.48
2019-03-18T02:30:19.542Z,25.35
2019-03-18T02:32:48.118Z,22.37
2019-03-18T02:35:16.798Z,21.07
2019-03-18T02:37:45.371Z,31.23
2019-03-18T02:40:14.054Z,25.70
2019-03-18T02:42:42.640Z,20.35
2019-03-18T02:45:11.625Z,20.02
2019-03-18T02:47:40.104Z,13.95
2019-03-18T02:50:09.596Z,14.05
2019-03-18T02:52:38.093Z,10.50
2019-03-18T02:55:07.588Z,12.58
2019-03-18T02:57:36.176Z,19.57
2019-03-18T03:00:13.784Z,12.03
2019-03-18T03:02:42.280Z,13.62
2019-03-18T03:05:13.089Z,18.42
2019-03-18T03:07:41.591Z,19.50
2019-03-18T03:10:11.606Z,18.35
2019-03-18T03:12:40.063Z,13.35
2019-03-18T03:15:12.794Z,15.95
2019-03-18T03:17:41.286Z,14.95
2019-03-18T03:20:10.785Z,15.68
2019-03-18T03:22:39.272Z,12.40
2019-03-18T03:25:08.949Z,12.18
2019-03-18T03:27:37.449Z,15.55
2019-03-18T03:30:11.383Z,11.10
2019-03-18T03:32:39.883Z,12.20
2019-03-18T03:35:08.528Z,14.65
2019-03-18T03:37:37.020Z,12.30
2019-03-18T03:40:12.386Z,14.95
2019-03-18T03:42:40.854Z,12.20
2019-03-18T03:45:13.724Z,12.00
2019-03-18T03:47:42.244Z,12.30
2019-03-18T03:50:11.998Z,13.40
2019-03-18T03:52:40.486Z,9.38
2019-03-18T03:55:12.667Z,12.65
2019-03-18T03:57:41.151Z,17.50
2019-03-18T04:00:15.659Z,16.00
2019-03-18T04:02:44.147Z,17.30
2019-03-18T04:05:12.671Z,20.15
2019-03-18T04:07:41.261Z,11.05
2019-03-18T04:10:11.344Z,12.07
2019-03-18T04:12:39.836Z,20.35
2019-03-18T04:15:12.744Z,17.65
2019-03-18T04:17:41.257Z,18.07
2019-03-18T04:20:12.870Z,13.85
2019-03-18T04:22:41.365Z,14.35
2019-03-18T04:25:09.836Z,9.25
2019-03-18T04:27:38.327Z,19.87
2019-03-18T04:30:09.294Z,10.13
2019-03-18T04:32:37.770Z,23.02
2019-03-18T04:35:06.568Z,47.80
2019-03-18T04:37:35.050Z,74.07
2019-03-18T04:40:03.641Z,73.55
2019-03-18T04:42:32.140Z,59.98
2019-03-18T04:45:00.691Z,31.93
2019-03-18T04:47:29.401Z,18.40
2019-03-18T04:49:57.892Z,14.07
2019-03-18T04:52:26.387Z,21.33
2019-03-18T04:54:54.882Z,22.62
2019-03-18T04:57:23.371Z,34.08
2019-03-18T04:59:51.861Z,53.45
2019-03-18T05:02:20.360Z,20.35
2019-03-18T05:04:48.847Z,16.10
2019-03-18T05:07:17.356Z,50.78
2019-03-18T05:09:45.844Z,73.17
2019-03-18T05:12:14.340Z,35.63
2019-03-18T05:14:42.821Z,20.08
2019-03-18T05:17:11.426Z,25.50
2019-03-18T05:19:39.899Z,39.65
2019-03-18T05:22:08.402Z,45.80
2019-03-18T05:24:36.883Z,45.60
2019-03-18T05:27:05.384Z,63.00
2019-03-18T05:29:33.870Z,67.17
2019-03-18T05:32:04.973Z,64.82
2019-03-18T05:34:32.604Z,35.33
2019-03-18T05:37:01.114Z,30.00
2019-03-18T05:39:29.587Z,15.20
2019-03-18T05:41:58.085Z,22.20
2019-03-18T05:44:26.584Z,53.00
2019-03-18T05:46:55.077Z,47.13
2019-03-18T05:49:23.566Z,68.80
2019-03-18T05:51:52.060Z,27.48
2019-03-18T05:54:20.558Z,117.03
2019-03-18T05:56:49.046Z,55.78
2019-03-18T05:59:17.545Z,84.67
2019-03-18T06:01:46.035Z,24.30
2019-03-18T06:04:14.527Z,44.23
2019-03-18T06:06:43.025Z,51.08
2019-03-18T06:09:11.529Z,29.42
2019-03-18T06:11:40.026Z,50.05
2019-03-18T06:14:08.515Z,53.95
2019-03-18T06:16:37.017Z,61.60
2019-03-18T06:19:05.500Z,61.20
2019-03-18T06:21:34.004Z,49.90
2019-03-18T06:24:02.494Z,54.60
2019-03-18T06:26:30.987Z,52.27
2019-03-18T06:28:59.486Z,41.65
2019-03-18T06:31:28.034Z,44.93
2019-03-18T06:33:56.519Z,50.73
2019-03-18T06:36:25.008Z,38.88
2019-03-18T06:38:53.526Z,36.68
2019-03-18T06:41:22.014Z,51.20
2019-03-18T06:43:50.516Z,36.63
2019-03-18T06:46:19.003Z,47.05
2019-03-18T06:48:47.511Z,41.95
2019-03-18T06:51:16.005Z,40.33
2019-03-18T06:53:44.549Z,40.65
2019-03-18T06:56:13.037Z,37.35
2019-03-18T06:58:41.528Z,40.30
2019-03-18T07:01:10.040Z,43.28
2019-03-18T07:03:38.528Z,43.15
2019-03-18T07:06:07.029Z,35.20
2019-03-18T07:08:35.521Z,37.80
2019-03-18T07:11:04.017Z,34.63
2019-03-18T07:13:32.509Z,42.80
2019-03-18T07:16:01.004Z,41.48
2019-03-18T07:18:29.495Z,36.98
2019-03-18T07:20:57.996Z,40.17
2019-03-18T07:23:26.490Z,37.35
2019-03-18T07:25:55.004Z,35.98
2019-03-18T07:28:23.498Z,32.23
2019-03-18T07:30:51.998Z,35.88
2019-03-18T07:33:20.488Z,65.30
2019-03-18T07:35:48.988Z,34.63
2019-03-18T07:38:17.476Z,39.65
2019-03-18T07:40:45.973Z,38.55
2019-03-18T07:43:14.462Z,30.40
2019-03-18T07:45:42.957Z,33.83
2019-03-18T07:48:12.631Z,36.15
2019-03-18T07:50:41.215Z,49.85
2019-03-18T07:53:09.714Z,37.90
2019-03-18T07:55:38.212Z,43.28
2019-03-18T07:58:06.720Z,29.45
2019-03-18T08:00:35.206Z,29.98
2019-03-18T08:03:03.712Z,26.70
2019-03-18T08:05:32.193Z,26.60
2019-03-18T08:08:00.686Z,22.95
2019-03-18T08:10:29.183Z,19.70
2019-03-18T08:12:57.670Z,30.68
2019-03-18T08:15:26.180Z,26.62
2019-03-18T08:17:54.657Z,27.55
2019-03-18T08:20:23.161Z,32.48
2019-03-18T08:22:51.642Z,24.23
2019-03-18T08:25:20.139Z,32.75
2019-03-18T08:27:48.633Z,21.12
2019-03-18T08:30:18.516Z,24.65
2019-03-18T08:32:47.002Z,16.93
2019-03-18T08:35:15.526Z,18.27
2019-03-18T08:37:44.022Z,21.30
2019-03-18T08:40:12.716Z,23.85
2019-03-18T08:42:41.211Z,27.32
2019-03-18T08:45:11.858Z,32.28
2019-03-18T08:47:40.352Z,28.50
2019-03-18T08:50:12.288Z,23.42
2019-03-18T08:52:40.475Z,24.57
2019-03-18T08:55:10.720Z,27.67
2019-03-18T08:57:39.211Z,14.18
2019-03-18T09:00:14.109Z,33.50
2019-03-18T09:02:42.608Z,28.85
2019-03-18T09:05:11.156Z,30.62
2019-03-18T09:07:39.664Z,37.93
2019-03-18T09:10:13.167Z,27.93
2019-03-18T09:12:41.651Z,24.92
2019-03-18T09:15:14.599Z,24.25
2019-03-18T09:17:43.063Z,21.27
2019-03-18T09:20:16.293Z,19.85
2019-03-18T09:22:44.772Z,21.50
2019-03-18T09:25:13.368Z,17.85
2019-03-18T09:27:41.866Z,24.43
2019-03-18T09:30:21.154Z,19.55
2019-03-18T09:32:49.638Z,48.60
2019-03-18T09:35:18.128Z,25.25
2019-03-18T09:37:46.617Z,26.00
2019-03-18T09:40:16.115Z,28.07
2019-03-18T09:42:44.606Z,30.50
2019-03-18T09:45:18.013Z,23.00
2019-03-18T09:47:46.498Z,34.95
2019-03-18T09:50:15.598Z,25.72
2019-03-18T09:52:44.083Z,25.17
2019-03-18T09:55:12.586Z,25.08
2019-03-18T09:57:41.073Z,39.38
2019-03-18T10:00:12.693Z,22.40
2019-03-18T10:02:41.173Z,22.17
2019-03-18T10:05:09.660Z,16.35
2019-03-18T10:07:38.153Z,21.30
2019-03-18T10:10:08.953Z,28.50
2019-03-18T10:12:37.451Z,44.65
2019-03-18T10:15:16.164Z,31.42
2019-03-18T10:17:44.651Z,32.63
2019-03-18T10:20:13.162Z,27.45
2019-03-18T10:22:41.654Z,22.60
2019-03-18T10:25:10.159Z,18.95
2019-03-18T10:27:38.646Z,60.75
2019-03-18T10:30:12.478Z,26.60
2019-03-18T10:32:40.965Z,24.37
2019-03-18T10:35:09.753Z,37.60
2019-03-18T10:37:38.267Z,18.90
2019-03-18T10:40:14.401Z,50.98
2019-03-18T10:42:42.888Z,29.18
2019-03-18T10:45:13.551Z,27.02
2019-03-18T10:47:42.043Z,48.70
2019-03-18T10:50:18.443Z,51.60
2019-03-18T10:52:46.954Z,22.45
2019-03-18T10:55:15.487Z,19.35
2019-03-18T10:57:44.056Z,45.83
2019-03-18T11:00:17.638Z,30.95
2019-03-18T11:02:46.125Z,50.30
2019-03-18T11:05:14.626Z,52.70
2019-03-18T11:07:43.111Z,28.25
2019-03-18T11:10:15.531Z,30.30
2019-03-18T11:12:44.014Z,21.90
2019-03-18T11:15:20.689Z,11.43
2019-03-18T11:17:49.218Z,20.45
2019-03-18T11:20:17.730Z,51.45
2019-03-18T11:22:46.217Z,25.30
2019-03-18T11:25:15.326Z,26.07
2019-03-18T11:27:43.806Z,29.90
2019-03-18T11:30:16.056Z,9.95
2019-03-18T11:32:44.544Z,39.48
2019-03-18T11:35:13.031Z,9.85
2019-03-18T11:37:41.519Z,18.65
2019-03-18T11:40:15.974Z,94.75
2019-03-18T11:42:44.465Z,48.73
2019-03-18T11:45:14.180Z,99.03
2019-03-18T11:47:42.655Z,65.30
2019-03-18T11:50:15.420Z,99.47
2019-03-18T11:52:43.907Z,31.37
2019-03-18T11:55:15.363Z,38.42
2019-03-18T11:57:43.849Z,20.05
2019-03-18T12:00:17.468Z,25.75
2019-03-18T12:02:46.040Z,11.97
2019-03-18T12:05:16.835Z,14.58
2019-03-18T12:07:45.310Z,22.35
2019-03-18T12:10:18.546Z,23.85
2019-03-18T12:12:47.032Z,16.15
2019-03-18T12:15:21.575Z,17.48
2019-03-18T12:17:49.553Z,24.98
2019-03-18T12:20:24.441Z,9.85
2019-03-18T12:22:48.249Z,30.05
2019-03-18T12:25:16.733Z,9.78
2019-03-18T12:27:45.219Z,24.40
2019-03-18T12:30:16.533Z,7.87
2019-03-18T12:32:45.038Z,10.98
2019-03-18T12:35:13.530Z,11.03
2019-03-18T12:37:42.023Z,11.05
2019-03-18T12:40:17.421Z,10.70
2019-03-18T12:42:45.897Z,15.95
2019-03-18T12:45:15.488Z,14.38
2019-03-18T12:47:44.094Z,10.30
2019-03-18T12:50:36.365Z,8.05
2019-03-18T12:52:50.743Z,12.70
2019-03-18T12:55:19.238Z,11.90
2019-03-18T12:57:47.723Z,20.92
2019-03-18T13:00:27.272Z,14.38
2019-03-18T13:02:55.766Z,17.87
2019-03-18T13:05:24.249Z,17.52
2019-03-18T13:07:52.745Z,33.88
2019-03-18T13:10:22.136Z,83.40
2019-03-18T13:12:50.828Z,13.55
2019-03-18T13:15:20.802Z,57.13
2019-03-18T13:17:49.291Z,16.73
2019-03-18T13:20:18.721Z,24.40
2019-03-18T13:22:47.204Z,18.35
2019-03-18T13:25:15.694Z,20.70
2019-03-18T13:27:44.195Z,29.18
2019-03-18T13:30:19.603Z,19.70
2019-03-18T13:32:48.098Z,11.68
2019-03-18T13:35:16.649Z,22.07
2019-03-18T13:37:45.157Z,5.45
2019-03-18T13:40:15.922Z,6.30
2019-03-18T13:42:44.440Z,6.72
2019-03-18T13:45:15.019Z,7.90
2019-03-18T13:47:43.500Z,11.05
2019-03-18T13:50:14.403Z,19.05
2019-03-18T13:52:43.083Z,9.58
2019-03-18T13:55:11.574Z,10.32
2019-03-18T13:57:40.058Z,17.23
2019-03-18T14:00:11.899Z,10.30
2019-03-18T14:02:40.340Z,18.35
2019-03-18T14:05:09.136Z,12.60
2019-03-18T14:07:37.634Z,17.12
2019-03-18T14:10:09.497Z,20.60
2019-03-18T14:12:38.001Z,19.92
2019-03-18T14:15:12.739Z,21.62
2019-03-18T14:17:41.229Z,21.27
2019-03-18T14:20:12.125Z,16.02
2019-03-18T14:22:40.616Z,26.05
2019-03-18T14:25:10.112Z,32.50
2019-03-18T14:27:38.607Z,22.77
2019-03-18T14:30:12.532Z,19.73
2019-03-18T14:32:41.056Z,18.15
2019-03-18T14:35:09.850Z,27.20
2019-03-18T14:37:38.338Z,31.02
2019-03-18T14:40:10.214Z,26.70
2019-03-18T14:42:38.708Z,26.77
2019-03-18T14:45:13.313Z,17.75
2019-03-18T14:47:41.795Z,11.43
2019-03-18T14:50:11.692Z,8.70
2019-03-18T14:52:40.169Z,9.65
2019-03-18T14:55:10.979Z,10.25
2019-03-18T14:57:39.446Z,7.83
2019-03-18T15:00:11.064Z,12.00
2019-03-18T15:02:39.555Z,11.78
2019-03-18T15:05:10.747Z,9.05
2019-03-18T15:07:39.227Z,8.88
2019-03-18T15:10:10.527Z,10.53
2019-03-18T15:12:38.996Z,8.18
2019-03-18T15:15:10.753Z,8.13
2019-03-18T15:17:39.269Z,8.10
2019-03-18T15:20:12.297Z,7.85
2019-03-18T15:22:40.481Z,3.98
2019-03-18T15:25:14.765Z,24.43
2019-03-18T15:27:43.261Z,9.65
2019-03-18T15:30:14.392Z,12.47
2019-03-18T15:32:42.871Z,12.47
2019-03-18T15:35:12.065Z,10.18
2019-03-18T15:37:40.557Z,10.35
2019-03-18T15:40:19.667Z,9.13
2019-03-18T15:42:48.151Z,27.40
2019-03-18T15:45:19.207Z,14.00
2019-03-18T15:47:47.690Z,10.03
2019-03-18T15:50:18.658Z,12.15
2019-03-18T15:52:47.149Z,5.72
2019-03-18T15:55:15.640Z,10.72
2019-03-18T15:57:44.145Z,17.37
2019-03-18T16:00:15.191Z,16.23
2019-03-18T16:02:43.680Z,18.62
2019-03-18T16:05:12.171Z,12.05
2019-03-18T16:07:40.650Z,8.23
2019-03-18T16:10:12.110Z,8.28
2019-03-18T16:12:40.593Z,15.30
2019-03-18T16:15:11.284Z,9.63
2019-03-18T16:17:41.617Z,10.88
2019-03-18T16:20:14.614Z,8.78
2019-03-18T16:22:43.107Z,10.53
2019-03-18T16:25:11.693Z,5.47
2019-03-18T16:27:40.170Z,7.10
2019-03-18T16:30:16.690Z,16.02
2019-03-18T16:32:45.173Z,8.30
2019-03-18T16:35:16.247Z,9.68
2019-03-18T16:37:44.917Z,6.25
2019-03-18T16:40:15.674Z,9.18
2019-03-18T16:42:44.151Z,6.50
2019-03-18T16:45:16.908Z,9.28
2019-03-18T16:47:45.390Z,7.30
2019-03-18T16:50:15.690Z,7.33
2019-03-18T16:52:44.169Z,8.95
2019-03-18T16:55:12.660Z,12.00
2019-03-18T16:57:41.131Z,7.03
2019-03-18T17:00:21.658Z,5.45
2019-03-18T17:02:50.141Z,9.73
2019-03-18T17:05:18.630Z,7.08
2019-03-18T17:07:47.109Z,8.68
2019-03-18T17:10:16.215Z,9.20
2019-03-18T17:12:44.691Z,10.68
2019-03-18T17:15:19.286Z,10.72
2019-03-18T17:17:47.773Z,11.28
2019-03-18T17:20:16.803Z,54.53
2019-03-18T17:22:49.377Z,9.68
2019-03-18T17:25:30.720Z,5.42
2019-03-18T17:27:59.189Z,6.05
2019-03-18T17:30:27.674Z,8.75
2019-03-18T17:32:56.158Z,7.00
2019-03-18T17:35:24.758Z,5.50
2019-03-18T17:37:53.306Z,7.55
2019-03-18T17:40:21.804Z,5.72
2019-03-18T17:42:50.297Z,8.20
2019-03-18T17:45:19.091Z,14.63
2019-03-18T17:47:47.660Z,12.33
2019-03-18T17:50:26.218Z,10.88
2019-03-18T17:53:02.184Z,9.18
2019-03-18T17:55:24.958Z,9.33
2019-03-18T17:57:53.400Z,6.67
2019-03-18T18:00:23.445Z,6.50
2019-03-18T18:02:52.857Z,5.87
2019-03-18T18:05:21.507Z,5.97
2019-03-18T18:07:49.998Z,6.70
2019-03-18T18:10:18.484Z,9.68
2019-03-18T18:12:46.979Z,8.40
2019-03-18T18:15:15.465Z,10.38
2019-03-18T18:17:43.961Z,8.98
2019-03-18T18:20:13.650Z,11.00
2019-03-18T18:22:42.136Z,10.98
2019-03-18T18:25:11.828Z,16.60
2019-03-18T18:27:40.311Z,15.18
2019-03-18T18:30:11.081Z,12.37
2019-03-18T18:32:39.564Z,17.45
2019-03-18T18:35:09.660Z,12.63
2019-03-18T18:37:38.147Z,17.07
2019-03-18T18:40:20.811Z,25.48
2019-03-18T18:42:49.297Z,38.58
2019-03-18T18:45:17.796Z,19.55
2019-03-18T18:47:46.284Z,22.02
2019-03-18T18:50:14.786Z,14.65
2019-03-18T18:52:43.279Z,22.15
2019-03-18T18:55:15.852Z,19.98
2019-03-18T18:57:44.342Z,38.73
2019-03-18T19:00:22.655Z,25.48
2019-03-18T19:02:51.150Z,36.85
2019-03-18T19:05:19.660Z,36.00
2019-03-18T19:07:48.261Z,33.80
2019-03-18T19:10:20.418Z,44.77
2019-03-18T19:12:48.911Z,40.50
2019-03-18T19:15:24.390Z,34.53
2019-03-18T19:17:52.881Z,28.38
2019-03-18T19:20:21.382Z,42.45
2019-03-18T19:22:49.869Z,31.70
2019-03-18T19:25:18.470Z,23.87
2019-03-18T19:27:46.971Z,20.90
2019-03-18T19:30:19.658Z,25.05
2019-03-18T19:32:48.143Z,30.97
2019-03-18T19:35:16.658Z,21.62
2019-03-18T19:37:45.137Z,34.43
2019-03-18T19:40:18.157Z,33.40
2019-03-18T19:42:46.645Z,34.23
2019-03-18T19:45:15.142Z,34.05
2019-03-18T19:47:43.629Z,28.17
2019-03-18T19:50:32.097Z,21.07
2019-03-18T19:53:00.631Z,18.20
2019-03-18T19:55:29.089Z,24.18
2019-03-18T19:57:57.577Z,30.37
2019-03-18T20:00:29.958Z,31.57
2019-03-18T20:02:58.455Z,34.00
2019-03-18T20:05:27.008Z,22.52
2019-03-18T20:07:55.487Z,15.70
2019-03-18T20:10:23.995Z,21.40
2019-03-18T20:12:52.483Z,38.55
2019-03-18T20:15:20.985Z,26.68
2019-03-18T20:17:49.485Z,25.55
2019-03-18T20:20:20.251Z,23.45
2019-03-18T20:22:48.774Z,20.82
2019-03-18T20:25:17.254Z,19.00
2019-03-18T20:27:45.752Z,23.50
2019-03-18T20:30:17.841Z,18.57
2019-03-18T20:32:46.330Z,18.98
2019-03-18T20:35:16.016Z,16.35
2019-03-18T20:37:44.495Z,18.87
2019-03-18T20:40:14.851Z,18.55
2019-03-18T20:42:43.344Z,18.27
2019-03-18T20:45:22.023Z,20.10
2019-03-18T20:47:50.517Z,21.37
2019-03-18T20:50:23.063Z,20.32
2019-03-18T20:52:51.710Z,23.73
2019-03-18T20:55:20.252Z,19.30
2019-03-18T20:57:48.738Z,16.20
2019-03-18T21:00:18.342Z,23.35
2019-03-18T21:02:46.834Z,24.75
2019-03-18T21:05:15.327Z,19.37
2019-03-18T21:07:43.816Z,20.08
2019-03-18T21:10:16.231Z,13.05
2019-03-18T21:12:44.711Z,16.07
2019-03-18T21:15:16.748Z,15.45
2019-03-18T21:17:45.227Z,11.90
2019-03-18T21:20:19.036Z,13.80
2019-03-18T21:22:47.522Z,16.65
2019-03-18T21:25:16.018Z,20.05
2019-03-18T21:27:44.516Z,13.00
2019-03-18T21:30:22.829Z,16.55
2019-03-18T21:32:51.395Z,16.97
2019-03-18T21:35:19.997Z,21.15
2019-03-18T21:37:48.483Z,19.02
2019-03-18T21:40:21.220Z,22.85
2019-03-18T21:42:49.707Z,27.05
2019-03-18T21:45:28.070Z,31.50
2019-03-18T21:47:56.508Z,30.17
2019-03-18T21:50:25.004Z,40.48
2019-03-18T21:52:53.499Z,35.95
2019-03-18T21:55:21.991Z,35.48
2019-03-18T21:57:50.492Z,25.35
2019-03-18T22:00:22.394Z,18.62
2019-03-18T22:02:50.879Z,22.05
2019-03-18T22:05:19.476Z,16.57
2019-03-18T22:07:47.971Z,26.55
2019-03-18T22:10:17.592Z,12.58
2019-03-18T22:12:46.556Z,15.53
2019-03-18T22:15:15.562Z,19.25
2019-03-18T22:17:44.049Z,29.65
2019-03-18T22:20:18.714Z,15.05
2019-03-18T22:22:47.201Z,19.20
2019-03-18T22:25:16.002Z,24.85
2019-03-18T22:27:44.498Z,16.97
2019-03-18T22:30:17.743Z,13.43
2019-03-18T22:32:46.224Z,15.35
2019-03-18T22:35:14.918Z,12.82
2019-03-18T22:37:43.404Z,13.95
2019-03-18T22:40:13.961Z,13.62
2019-03-18T22:42:42.444Z,14.23
2019-03-18T22:45:13.036Z,10.48
2019-03-18T22:47:41.522Z,7.55
2019-03-18T22:50:11.613Z,7.10
2019-03-18T22:52:40.101Z,6.78
2019-03-18T22:55:10.554Z,8.00
2019-03-18T22:57:39.438Z,6.58
2019-03-18T23:00:22.392Z,8.05
2019-03-18T23:02:50.882Z,22.62
2019-03-18T23:05:19.362Z,14.13
2019-03-18T23:07:47.858Z,14.33
2019-03-18T23:10:16.353Z,18.82
2019-03-18T23:12:44.849Z,12.85
2019-03-18T23:15:13.338Z,13.53
2019-03-18T23:17:41.833Z,14.30
2019-03-18T23:20:10.319Z,17.05
2019-03-18T23:22:38.815Z,17.90
2019-03-18T23:25:08.344Z,13.22
2019-03-18T23:27:36.997Z,14.07
2019-03-18T23:30:08.576Z,16.85
2019-03-18T23:32:37.072Z,13.65
2019-03-18T23:35:07.126Z,10.80
2019-03-18T23:37:35.676Z,13.08
2019-03-18T23:40:06.065Z,12.65
2019-03-18T23:42:34.582Z,13.90
2019-03-18T23:45:03.076Z,12.18
2019-03-18T23:47:31.560Z,11.53
2019-03-18T23:50:00.043Z,14.15
2019-03-18T23:52:28.539Z,12.63
2019-03-18T23:54:57.024Z,12.00
2019-03-18T23:57:25.516Z,11.93
2019-03-18T23:59:54.002Z,14.93
